createdAt,value
2022-10-30T00:02:59.167Z,11.75
2022-10-30T00:08:02.870Z,11.69
2022-10-30T00:13:06.355Z,11.75
2022-10-30T00:18:11.169Z,11.70
2022-10-30T00:23:14.274Z,11.89
2022-10-30T00:28:17.641Z,11.82
2022-10-30T00:33:22.796Z,11.95
2022-10-30T00:38:26.246Z,11.96
2022-10-30T00:43:35.718Z,11.82
2022-10-30T00:48:40.731Z,11.74
2022-10-30T00:53:44.863Z,11.68
2022-10-30T00:58:52.416Z,11.64
2022-10-30T01:03:59.409Z,11.59
2022-10-30T01:09:04.361Z,11.58
2022-10-30T01:14:11.387Z,11.56
2022-10-30T01:19:24.426Z,11.55
2022-10-30T01:24:44.790Z,11.56
2022-10-30T01:29:57.456Z,11.43
2022-10-30T01:35:11.294Z,11.50
2022-10-30T01:40:21.406Z,11.55
2022-10-30T01:45:35.202Z,11.43
2022-10-30T01:50:48.908Z,11.45
2022-10-30T01:56:04.741Z,11.46
2022-10-30T02:01:09.134Z,11.44
2022-10-30T02:06:14.012Z,11.54
2022-10-30T02:11:17.286Z,11.51
2022-10-30T02:16:20.776Z,11.30
2022-10-30T02:21:25.647Z,11.36
2022-10-30T02:26:29.145Z,11.41
2022-10-30T02:31:32.690Z,11.35
2022-10-30T02:36:37.849Z,11.40
2022-10-30T02:41:41.674Z,11.36
2022-10-30T02:46:45.045Z,11.32
2022-10-30T02:51:49.744Z,11.28
2022-10-30T02:56:52.939Z,11.11
2022-10-30T03:01:56.375Z,10.94
2022-10-30T03:07:01.171Z,10.86
2022-10-30T03:12:04.389Z,10.80
2022-10-30T03:17:07.784Z,10.50
2022-10-30T03:22:12.599Z,10.39
2022-10-30T03:27:15.727Z,10.24
2022-10-30T03:32:19.181Z,10.22
2022-10-30T03:37:23.999Z,10.27
2022-10-30T03:42:27.268Z,10.00
2022-10-30T03:47:30.681Z,10.00
2022-10-30T03:52:35.376Z,10.01
2022-10-30T03:57:39.938Z,9.85
2022-10-30T04:02:47.703Z,9.83
2022-10-30T04:07:57.411Z,9.98
2022-10-30T04:13:05.215Z,9.90
2022-10-30T04:18:11.558Z,9.77
2022-10-30T04:23:18.021Z,9.77
2022-10-30T04:28:22.280Z,9.74
2022-10-30T04:33:25.755Z,9.65
2022-10-30T04:38:30.494Z,9.66
2022-10-30T04:43:33.903Z,9.94
2022-10-30T04:48:37.331Z,10.14
2022-10-30T04:53:42.446Z,10.31
2022-10-30T04:58:46.208Z,10.30
2022-10-30T05:03:53.673Z,10.29
2022-10-30T05:09:00.296Z,10.30
2022-10-30T05:14:03.751Z,10.30
2022-10-30T05:19:07.426Z,10.32
2022-10-30T05:24:12.345Z,10.27
2022-10-30T05:29:15.751Z,10.12
2022-10-30T05:34:19.154Z,9.87
2022-10-30T05:39:24.201Z,9.75
2022-10-30T05:44:47.264Z,11.00
2022-10-30T05:49:50.983Z,12.39
2022-10-30T05:54:55.754Z,16.28
2022-10-30T05:59:59.138Z,21.29
2022-10-30T06:05:02.566Z,23.47
2022-10-30T06:10:08.629Z,25.43
2022-10-30T06:15:12.094Z,25.15
2022-10-30T06:20:15.929Z,21.44
2022-10-30T06:25:20.676Z,17.98
2022-10-30T06:30:24.189Z,17.25
2022-10-30T06:35:28.176Z,20.02
2022-10-30T06:40:35.600Z,23.24
2022-10-30T06:45:39.114Z,26.22
2022-10-30T06:50:43.748Z,26.88
2022-10-30T06:55:58.827Z,27.15
2022-10-30T07:01:02.489Z,27.58
2022-10-30T07:06:06.227Z,24.04
2022-10-30T07:11:11.047Z,22.46
2022-10-30T07:16:14.754Z,24.57
2022-10-30T07:21:18.138Z,27.15
2022-10-30T07:26:22.839Z,27.46
2022-10-30T07:31:41.466Z,24.45
2022-10-30T07:36:46.200Z,24.88
2022-10-30T07:41:51.599Z,24.37
2022-10-30T07:46:55.204Z,25.29
2022-10-30T07:51:58.602Z,23.57
2022-10-30T07:57:03.397Z,18.95
2022-10-30T08:02:07.190Z,15.92
2022-10-30T08:07:10.860Z,13.98
2022-10-30T08:12:15.652Z,12.83
2022-10-30T08:17:19.101Z,13.07
2022-10-30T08:22:22.476Z,12.64
2022-10-30T08:27:29.497Z,12.27
2022-10-30T08:32:32.870Z,11.79
2022-10-30T08:37:38.933Z,11.28
2022-10-30T08:42:43.672Z,10.70
2022-10-30T08:47:47.104Z,10.38
2022-10-30T08:52:53.829Z,10.23
2022-10-30T08:58:00.391Z,10.13
2022-10-30T09:03:04.179Z,10.03
2022-10-30T09:08:07.809Z,9.98
2022-10-30T09:13:12.999Z,9.99
2022-10-30T09:18:16.419Z,9.89
2022-10-30T09:23:19.781Z,9.71
2022-10-30T09:28:25.001Z,9.78
2022-10-30T09:33:28.785Z,9.98
2022-10-30T09:38:32.117Z,10.39
2022-10-30T09:43:47.849Z,10.54
2022-10-30T09:49:12.187Z,10.34
2022-10-30T09:54:22.686Z,10.42
2022-10-30T09:59:40.733Z,10.19
2022-10-30T10:04:46.622Z,10.00
2022-10-30T10:09:54.244Z,9.91
2022-10-30T10:15:01.966Z,9.54
2022-10-30T10:20:13.079Z,9.44
2022-10-30T10:25:18.548Z,9.60
2022-10-30T10:30:25.950Z,9.81
2022-10-30T10:35:51.739Z,9.94
2022-10-30T10:41:02.311Z,9.80
2022-10-30T10:46:26.136Z,9.56
2022-10-30T10:51:34.785Z,9.31
2022-10-30T10:56:41.807Z,9.24
2022-10-30T11:01:58.964Z,9.01
2022-10-30T11:07:14.086Z,8.83
2022-10-30T11:12:21.466Z,8.40
2022-10-30T11:17:35.238Z,8.16
2022-10-30T11:22:41.499Z,7.96
2022-10-30T11:27:49.656Z,7.73
2022-10-30T11:32:56.983Z,7.86
2022-10-30T11:38:14.460Z,7.90
2022-10-30T11:43:23.767Z,7.83
2022-10-30T11:48:33.996Z,7.81
2022-10-30T11:53:43.125Z,7.68
2022-10-30T11:58:50.165Z,7.54
2022-10-30T12:03:58.702Z,7.52
2022-10-30T12:09:04.617Z,7.50
2022-10-30T12:14:08.417Z,7.43
2022-10-30T12:19:15.521Z,7.57
2022-10-30T12:24:22.454Z,7.64
2022-10-30T12:30:02.528Z,7.60
2022-10-30T12:35:09.752Z,6.96
2022-10-30T12:40:17.447Z,6.12
2022-10-30T12:45:26.093Z,5.69
2022-10-30T12:50:38.482Z,5.50
2022-10-30T12:55:47.182Z,5.15
2022-10-30T13:00:57.388Z,5.37
2022-10-30T13:06:08.178Z,5.34
2022-10-30T13:11:18.472Z,5.42
2022-10-30T13:16:27.636Z,5.46
2022-10-30T13:21:39.126Z,5.54
2022-10-30T13:26:48.642Z,5.48
2022-10-30T13:32:04.761Z,5.57
2022-10-30T13:37:16.262Z,5.56
2022-10-30T13:42:40.363Z,5.63
2022-10-30T13:47:53.899Z,5.64
2022-10-30T13:53:03.894Z,5.73
2022-10-30T13:58:17.516Z,5.80
2022-10-30T14:03:40.476Z,5.61
2022-10-30T14:08:56.993Z,5.13
2022-10-30T14:14:06.005Z,4.51
2022-10-30T14:19:11.364Z,3.93
2022-10-30T14:24:21.887Z,3.63
2022-10-30T14:29:48.847Z,3.33
2022-10-30T14:35:00.022Z,2.79
2022-10-30T14:40:41.589Z,2.71
2022-10-30T14:45:50.681Z,2.79
2022-10-30T14:51:10.700Z,2.92
2022-10-30T14:56:29.643Z,2.91
2022-10-30T15:01:39.278Z,2.89
2022-10-30T15:06:57.688Z,2.98
2022-10-30T15:12:21.141Z,2.98
2022-10-30T15:17:30.381Z,2.78
2022-10-30T15:22:35.901Z,2.74
2022-10-30T15:27:44.244Z,2.81
2022-10-30T15:32:47.841Z,2.74
2022-10-30T15:38:06.009Z,2.68
2022-10-30T15:43:16.654Z,2.69
2022-10-30T15:48:25.567Z,2.90
2022-10-30T15:53:37.018Z,3.16
2022-10-30T15:58:42.540Z,3.25
2022-10-30T16:03:53.539Z,3.33
2022-10-30T16:08:58.106Z,3.17
2022-10-30T16:14:09.111Z,3.08
2022-10-30T16:19:21.824Z,2.99
2022-10-30T16:24:33.377Z,2.95
2022-10-30T16:29:38.855Z,3.03
2022-10-30T16:34:43.745Z,3.10
2022-10-30T16:39:47.995Z,3.10
2022-10-30T16:45:05.305Z,2.89
2022-10-30T16:50:13.973Z,2.55
2022-10-30T16:55:21.419Z,2.94
2022-10-30T17:00:31.594Z,2.89
2022-10-30T17:05:38.394Z,2.80
2022-10-30T17:10:45.429Z,2.97
2022-10-30T17:15:50.308Z,2.84
2022-10-30T17:21:07.298Z,2.66
2022-10-30T17:26:11.996Z,2.46
2022-10-30T17:31:26.854Z,2.45
2022-10-30T17:36:30.273Z,2.12
2022-10-30T17:41:33.814Z,2.35
2022-10-30T17:46:38.943Z,2.23
2022-10-30T17:51:42.457Z,2.10
2022-10-30T17:56:45.976Z,2.06
2022-10-30T18:01:51.380Z,2.00
2022-10-30T18:06:55.228Z,1.88
2022-10-30T18:11:58.699Z,1.75
2022-10-30T18:17:03.716Z,1.77
2022-10-30T18:22:07.310Z,1.83
2022-10-30T18:27:11.208Z,1.78
2022-10-30T18:32:16.009Z,1.62
2022-10-30T18:37:19.528Z,1.77
2022-10-30T18:42:23.063Z,1.66
2022-10-30T18:47:27.947Z,1.63
2022-10-30T18:52:31.345Z,1.76
2022-10-30T18:57:34.753Z,1.68
2022-10-30T19:02:39.621Z,1.73
2022-10-30T19:07:42.864Z,1.78
2022-10-30T19:13:10.829Z,1.69
2022-10-30T19:18:14.360Z,1.64
2022-10-30T19:23:19.927Z,1.76
2022-10-30T19:28:23.542Z,1.72
2022-10-30T19:33:28.493Z,1.66
2022-10-30T19:38:31.780Z,1.74
2022-10-30T19:43:35.194Z,1.54
2022-10-30T19:48:56.594Z,1.57
2022-10-30T19:54:03.709Z,1.60
2022-10-30T19:59:11.307Z,1.68
2022-10-30T20:04:16.109Z,1.60
2022-10-30T20:09:19.808Z,1.41
2022-10-30T20:14:23.309Z,1.22
2022-10-30T20:19:31.596Z,1.32
2022-10-30T20:24:34.954Z,1.31
2022-10-30T20:29:41.333Z,1.34
2022-10-30T20:34:46.091Z,1.17
2022-10-30T20:39:50.824Z,1.15
2022-10-30T20:44:54.241Z,0.97
2022-10-30T20:49:58.968Z,1.11
2022-10-30T20:55:02.436Z,1.06
2022-10-30T21:00:08.156Z,0.99
2022-10-30T21:05:38.058Z,1.00
2022-10-30T21:10:38.651Z,1.05
2022-10-30T21:15:43.224Z,0.93
2022-10-30T21:20:48.625Z,0.94
2022-10-30T21:26:00.004Z,1.18
2022-10-30T21:31:03.805Z,1.29
2022-10-30T21:36:12.867Z,1.43
2022-10-30T21:41:18.261Z,1.43
2022-10-30T21:46:23.518Z,1.29
2022-10-30T21:51:28.850Z,1.16
2022-10-30T21:56:32.192Z,1.14
2022-10-30T22:01:38.886Z,1.14
2022-10-30T22:06:45.374Z,1.10
2022-10-30T22:11:48.837Z,1.01
2022-10-30T22:16:52.301Z,1.02
2022-10-30T22:21:56.995Z,1.06
2022-10-30T22:27:00.336Z,1.13
2022-10-30T22:32:03.711Z,1.17
2022-10-30T22:37:09.062Z,1.25
2022-10-30T22:42:12.428Z,1.22
2022-10-30T22:47:15.781Z,1.38
2022-10-30T22:52:20.498Z,1.39
2022-10-30T22:57:23.824Z,1.49
2022-10-30T23:02:27.219Z,1.49
2022-10-30T23:07:31.963Z,1.51
2022-10-30T23:12:35.383Z,1.55
2022-10-30T23:17:38.797Z,1.63
2022-10-30T23:22:43.738Z,1.72
2022-10-30T23:27:46.824Z,1.82
2022-10-30T23:32:50.190Z,1.75
2022-10-30T23:37:55.002Z,1.90
2022-10-30T23:42:58.783Z,1.97
2022-10-30T23:48:02.755Z,1.88
2022-10-30T23:53:07.592Z,1.89
2022-10-30T23:58:11.325Z,1.99
